sensor_id;sensor_type;location;lat;lon;timestamp;temperature;humidity
19174;DHT22;9719;49.322;8.536;2023-04-07T00:02:56;8.90;99.90
19174;DHT22;9719;49.322;8.536;2023-04-07T00:08:00;8.80;99.90
19174;DHT22;9719;49.322;8.536;2023-04-07T00:13:01;8.80;99.90
19174;DHT22;9719;49.322;8.536;2023-04-07T00:18:03;8.80;99.90
19174;DHT22;9719;49.322;8.536;2023-04-07T00:23:06;8.80;99.90
19174;DHT22;9719;49.322;8.536;2023-04-07T00:28:08;8.80;99.90
19174;DHT22;9719;49.322;8.536;2023-04-07T00:33:09;8.80;99.90
19174;DHT22;9719;49.322;8.536;2023-04-07T00:38:12;8.80;99.90
19174;DHT22;9719;49.322;8.536;2023-04-07T00:43:14;8.80;99.90
19174;DHT22;9719;49.322;8.536;2023-04-07T00:48:16;8.80;99.90
19174;DHT22;9719;49.322;8.536;2023-04-07T00:53:19;8.80;99.90
19174;DHT22;9719;49.322;8.536;2023-04-07T00:58:21;8.70;99.90
19174;DHT22;9719;49.322;8.536;2023-04-07T01:03:29;8.70;99.90
19174;DHT22;9719;49.322;8.536;2023-04-07T01:08:38;8.70;99.90
19174;DHT22;9719;49.322;8.536;2023-04-07T01:13:46;8.70;99.90
19174;DHT22;9719;49.322;8.536;2023-04-07T01:18:53;8.70;99.90
19174;DHT22;9719;49.322;8.536;2023-04-07T01:29:33;8.80;99.90
19174;DHT22;9719;49.322;8.536;2023-04-07T01:34:36;8.80;99.90
19174;DHT22;9719;49.322;8.536;2023-04-07T01:39:39;8.80;99.90
19174;DHT22;9719;49.322;8.536;2023-04-07T01:44:42;8.80;99.90
19174;DHT22;9719;49.322;8.536;2023-04-07T01:49:45;8.90;99.90
19174;DHT22;9719;49.322;8.536;2023-04-07T01:54:47;8.80;99.90
19174;DHT22;9719;49.322;8.536;2023-04-07T01:59:51;8.80;99.90
19174;DHT22;9719;49.322;8.536;2023-04-07T02:04:54;8.80;99.90
19174;DHT22;9719;49.322;8.536;2023-04-07T02:09:58;8.80;99.90
19174;DHT22;9719;49.322;8.536;2023-04-07T02:15:03;8.80;99.90
19174;DHT22;9719;49.322;8.536;2023-04-07T02:20:06;8.80;99.90
19174;DHT22;9719;49.322;8.536;2023-04-07T02:25:23;8.90;99.90
19174;DHT22;9719;49.322;8.536;2023-04-07T02:30:26;8.80;99.90
19174;DHT22;9719;49.322;8.536;2023-04-07T02:35:28;8.80;99.90
19174;DHT22;9719;49.322;8.536;2023-04-07T02:40:30;8.80;99.90
19174;DHT22;9719;49.322;8.536;2023-04-07T02:45:33;8.70;99.90
19174;DHT22;9719;49.322;8.536;2023-04-07T02:50:35;8.70;99.90
19174;DHT22;9719;49.322;8.536;2023-04-07T02:55:36;8.70;99.90
19174;DHT22;9719;49.322;8.536;2023-04-07T03:00:39;8.70;99.90
19174;DHT22;9719;49.322;8.536;2023-04-07T03:05:41;8.70;99.90
19174;DHT22;9719;49.322;8.536;2023-04-07T03:10:42;8.80;99.90
19174;DHT22;9719;49.322;8.536;2023-04-07T03:15:45;8.80;99.90
19174;DHT22;9719;49.322;8.536;2023-04-07T03:20:47;8.80;99.90
19174;DHT22;9719;49.322;8.536;2023-04-07T03:25:49;8.90;99.90
19174;DHT22;9719;49.322;8.536;2023-04-07T03:30:52;8.90;99.90
19174;DHT22;9719;49.322;8.536;2023-04-07T03:35:54;8.90;99.90
19174;DHT22;9719;49.322;8.536;2023-04-07T03:40:55;8.90;99.90
19174;DHT22;9719;49.322;8.536;2023-04-07T03:45:58;8.90;99.90
19174;DHT22;9719;49.322;8.536;2023-04-07T03:51:00;8.90;99.90
19174;DHT22;9719;49.322;8.536;2023-04-07T03:56:02;8.90;99.90
19174;DHT22;9719;49.322;8.536;2023-04-07T04:01:05;8.90;99.90
19174;DHT22;9719;49.322;8.536;2023-04-07T04:06:07;8.90;99.90
19174;DHT22;9719;49.322;8.536;2023-04-07T04:11:09;8.80;99.90
19174;DHT22;9719;49.322;8.536;2023-04-07T04:16:12;8.80;99.90
19174;DHT22;9719;49.322;8.536;2023-04-07T04:21:13;8.80;99.90
19174;DHT22;9719;49.322;8.536;2023-04-07T04:26:15;8.80;99.90
19174;DHT22;9719;49.322;8.536;2023-04-07T04:31:18;8.80;99.90
19174;DHT22;9719;49.322;8.536;2023-04-07T04:36:20;8.80;99.90
19174;DHT22;9719;49.322;8.536;2023-04-07T04:41:22;8.70;99.90
19174;DHT22;9719;49.322;8.536;2023-04-07T04:46:25;8.70;99.90
19174;DHT22;9719;49.322;8.536;2023-04-07T04:51:26;8.70;99.90
19174;DHT22;9719;49.322;8.536;2023-04-07T04:56:28;8.70;99.90
19174;DHT22;9719;49.322;8.536;2023-04-07T05:01:31;8.70;99.90
19174;DHT22;9719;49.322;8.536;2023-04-07T05:06:33;8.60;99.90
19174;DHT22;9719;49.322;8.536;2023-04-07T05:11:34;8.70;99.90
19174;DHT22;9719;49.322;8.536;2023-04-07T05:16:37;8.60;99.90
19174;DHT22;9719;49.322;8.536;2023-04-07T05:21:39;8.50;99.90
19174;DHT22;9719;49.322;8.536;2023-04-07T05:26:41;8.40;99.90
19174;DHT22;9719;49.322;8.536;2023-04-07T05:31:44;8.30;99.90
19174;DHT22;9719;49.322;8.536;2023-04-07T05:36:45;8.20;99.90
19174;DHT22;9719;49.322;8.536;2023-04-07T05:41:47;8.10;99.90
19174;DHT22;9719;49.322;8.536;2023-04-07T05:46:50;8.00;99.90
19174;DHT22;9719;49.322;8.536;2023-04-07T05:51:52;8.00;99.90
19174;DHT22;9719;49.322;8.536;2023-04-07T05:56:53;8.00;99.90
19174;DHT22;9719;49.322;8.536;2023-04-07T06:01:57;8.20;99.90
19174;DHT22;9719;49.322;8.536;2023-04-07T06:06:58;8.50;99.90
19174;DHT22;9719;49.322;8.536;2023-04-07T06:12:00;9.00;99.90
19174;DHT22;9719;49.322;8.536;2023-04-07T06:17:05;9.40;99.90
19174;DHT22;9719;49.322;8.536;2023-04-07T06:22:07;9.60;99.90
19174;DHT22;9719;49.322;8.536;2023-04-07T06:27:09;9.70;99.90
19174;DHT22;9719;49.322;8.536;2023-04-07T06:32:12;9.70;99.90
19174;DHT22;9719;49.322;8.536;2023-04-07T06:37:14;9.60;99.90
19174;DHT22;9719;49.322;8.536;2023-04-07T06:42:16;9.60;99.90
19174;DHT22;9719;49.322;8.536;2023-04-07T06:47:19;9.60;99.90
19174;DHT22;9719;49.322;8.536;2023-04-07T06:52:21;9.80;99.90
19174;DHT22;9719;49.322;8.536;2023-04-07T06:57:23;10.10;99.90
19174;DHT22;9719;49.322;8.536;2023-04-07T07:02:26;10.30;99.90
19174;DHT22;9719;49.322;8.536;2023-04-07T07:07:27;10.50;99.90
19174;DHT22;9719;49.322;8.536;2023-04-07T07:12:29;10.60;99.90
19174;DHT22;9719;49.322;8.536;2023-04-07T07:17:33;10.80;99.90
19174;DHT22;9719;49.322;8.536;2023-04-07T07:22:34;11.10;99.90
19174;DHT22;9719;49.322;8.536;2023-04-07T07:27:36;11.30;99.90
19174;DHT22;9719;49.322;8.536;2023-04-07T07:32:39;11.60;99.90
19174;DHT22;9719;49.322;8.536;2023-04-07T07:37:41;11.80;99.90
19174;DHT22;9719;49.322;8.536;2023-04-07T07:42:44;12.00;99.90
19174;DHT22;9719;49.322;8.536;2023-04-07T07:47:47;12.10;99.90
19174;DHT22;9719;49.322;8.536;2023-04-07T07:52:49;12.20;99.90
19174;DHT22;9719;49.322;8.536;2023-04-07T07:57:51;12.20;99.90
19174;DHT22;9719;49.322;8.536;2023-04-07T08:02:54;12.30;99.90
19174;DHT22;9719;49.322;8.536;2023-04-07T08:08:04;12.50;99.90
19174;DHT22;9719;49.322;8.536;2023-04-07T08:13:05;12.70;99.90
19174;DHT22;9719;49.322;8.536;2023-04-07T08:18:07;13.20;99.90
19174;DHT22;9719;49.322;8.536;2023-04-07T08:23:10;13.50;99.90
19174;DHT22;9719;49.322;8.536;2023-04-07T08:28:12;13.50;99.90
19174;DHT22;9719;49.322;8.536;2023-04-07T08:33:14;13.70;99.90
19174;DHT22;9719;49.322;8.536;2023-04-07T08:38:17;13.90;99.90
19174;DHT22;9719;49.322;8.536;2023-04-07T08:43:19;14.20;99.90
19174;DHT22;9719;49.322;8.536;2023-04-07T08:48:22;14.50;99.90
19174;DHT22;9719;49.322;8.536;2023-04-07T08:53:33;14.90;99.90
19174;DHT22;9719;49.322;8.536;2023-04-07T08:58:36;15.40;99.90
19174;DHT22;9719;49.322;8.536;2023-04-07T09:03:38;15.60;99.90
19174;DHT22;9719;49.322;8.536;2023-04-07T09:08:42;16.10;99.90
19174;DHT22;9719;49.322;8.536;2023-04-07T09:13:43;16.70;99.90
19174;DHT22;9719;49.322;8.536;2023-04-07T09:18:45;17.10;99.90
19174;DHT22;9719;49.322;8.536;2023-04-07T09:23:49;17.50;99.90
19174;DHT22;9719;49.322;8.536;2023-04-07T09:28:52;18.00;99.90
19174;DHT22;9719;49.322;8.536;2023-04-07T09:33:55;18.50;99.90
19174;DHT22;9719;49.322;8.536;2023-04-07T09:39:07;20.10;99.90
19174;DHT22;9719;49.322;8.536;2023-04-07T09:44:09;24.00;94.80
19174;DHT22;9719;49.322;8.536;2023-04-07T09:49:11;27.30;85.60
19174;DHT22;9719;49.322;8.536;2023-04-07T09:54:31;27.60;70.10
19174;DHT22;9719;49.322;8.536;2023-04-07T09:59:34;27.80;59.00
19174;DHT22;9719;49.322;8.536;2023-04-07T10:04:37;27.30;59.40
19174;DHT22;9719;49.322;8.536;2023-04-07T10:09:41;27.10;59.80
19174;DHT22;9719;49.322;8.536;2023-04-07T10:14:42;25.90;59.50
19174;DHT22;9719;49.322;8.536;2023-04-07T10:19:48;24.10;99.90
19174;DHT22;9719;49.322;8.536;2023-04-07T10:24:56;21.80;93.80
19174;DHT22;9719;49.322;8.536;2023-04-07T10:30:00;18.00;99.90
19174;DHT22;9719;49.322;8.536;2023-04-07T10:35:04;16.10;99.90
19174;DHT22;9719;49.322;8.536;2023-04-07T10:40:31;15.00;99.90
19174;DHT22;9719;49.322;8.536;2023-04-07T10:45:55;14.60;99.90
19174;DHT22;9719;49.322;8.536;2023-04-07T10:51:22;14.80;99.90
19174;DHT22;9719;49.322;8.536;2023-04-07T10:56:25;15.80;99.90
19174;DHT22;9719;49.322;8.536;2023-04-07T11:01:27;17.10;99.90
19174;DHT22;9719;49.322;8.536;2023-04-07T11:06:29;18.80;99.90
19174;DHT22;9719;49.322;8.536;2023-04-07T11:11:40;21.10;99.90
19174;DHT22;9719;49.322;8.536;2023-04-07T11:16:42;22.40;99.90
19174;DHT22;9719;49.322;8.536;2023-04-07T11:21:45;23.10;99.90
19174;DHT22;9719;49.322;8.536;2023-04-07T11:26:48;28.00;99.90
19174;DHT22;9719;49.322;8.536;2023-04-07T11:31:50;32.90;96.30
19174;DHT22;9719;49.322;8.536;2023-04-07T11:36:52;31.70;73.40
19174;DHT22;9719;49.322;8.536;2023-04-07T11:42:00;29.80;66.00
19174;DHT22;9719;49.322;8.536;2023-04-07T11:47:01;29.00;66.60
19174;DHT22;9719;49.322;8.536;2023-04-07T11:52:05;33.50;63.40
19174;DHT22;9719;49.322;8.536;2023-04-07T11:57:08;34.80;51.00
19174;DHT22;9719;49.322;8.536;2023-04-07T12:02:29;33.80;45.80
19174;DHT22;9719;49.322;8.536;2023-04-07T12:07:31;33.90;42.80
19174;DHT22;9719;49.322;8.536;2023-04-07T12:12:34;34.40;41.00
19174;DHT22;9719;49.322;8.536;2023-04-07T12:17:37;33.30;40.30
19174;DHT22;9719;49.322;8.536;2023-04-07T12:22:39;32.70;40.40
19174;DHT22;9719;49.322;8.536;2023-04-07T12:27:42;33.10;39.90
19174;DHT22;9719;49.322;8.536;2023-04-07T12:32:44;31.70;40.80
19174;DHT22;9719;49.322;8.536;2023-04-07T12:37:46;32.00;42.20
19174;DHT22;9719;49.322;8.536;2023-04-07T12:42:50;31.20;42.80
19174;DHT22;9719;49.322;8.536;2023-04-07T12:47:51;31.70;43.90
19174;DHT22;9719;49.322;8.536;2023-04-07T12:52:53;34.20;43.90
19174;DHT22;9719;49.322;8.536;2023-04-07T12:57:56;35.20;41.50
19174;DHT22;9719;49.322;8.536;2023-04-07T13:02:58;36.00;39.30
19174;DHT22;9719;49.322;8.536;2023-04-07T13:07:59;35.10;38.80
19174;DHT22;9719;49.322;8.536;2023-04-07T13:13:02;32.70;39.40
19174;DHT22;9719;49.322;8.536;2023-04-07T13:18:04;31.20;40.90
19174;DHT22;9719;49.322;8.536;2023-04-07T13:23:07;29.50;42.60
19174;DHT22;9719;49.322;8.536;2023-04-07T13:28:10;27.10;45.50
19174;DHT22;9719;49.322;8.536;2023-04-07T13:33:12;25.70;48.60
19174;DHT22;9719;49.322;8.536;2023-04-07T13:38:14;25.10;50.30
19174;DHT22;9719;49.322;8.536;2023-04-07T13:43:17;24.50;50.70
19174;DHT22;9719;49.322;8.536;2023-04-07T13:48:19;24.20;51.40
19174;DHT22;9719;49.322;8.536;2023-04-07T13:53:21;23.80;52.70
19174;DHT22;9719;49.322;8.536;2023-04-07T13:58:24;23.70;53.50
19174;DHT22;9719;49.322;8.536;2023-04-07T14:03:26;23.40;54.30
19174;DHT22;9719;49.322;8.536;2023-04-07T14:08:28;22.80;55.60
19174;DHT22;9719;49.322;8.536;2023-04-07T14:13:31;22.50;56.60
19174;DHT22;9719;49.322;8.536;2023-04-07T14:18:32;22.00;57.90
19174;DHT22;9719;49.322;8.536;2023-04-07T14:23:36;21.60;59.00
19174;DHT22;9719;49.322;8.536;2023-04-07T14:28:39;23.00;61.20
19174;DHT22;9719;49.322;8.536;2023-04-07T14:33:41;25.00;57.20
19174;DHT22;9719;49.322;8.536;2023-04-07T14:38:43;24.20;54.70
19174;DHT22;9719;49.322;8.536;2023-04-07T14:43:46;22.90;56.10
19174;DHT22;9719;49.322;8.536;2023-04-07T14:48:51;22.20;58.30
19174;DHT22;9719;49.322;8.536;2023-04-07T14:53:53;21.50;59.70
19174;DHT22;9719;49.322;8.536;2023-04-07T14:58:58;21.20;61.30
19174;DHT22;9719;49.322;8.536;2023-04-07T15:04:00;20.90;62.10
19174;DHT22;9719;49.322;8.536;2023-04-07T15:09:02;20.60;63.70
19174;DHT22;9719;49.322;8.536;2023-04-07T15:14:05;21.10;63.90
19174;DHT22;9719;49.322;8.536;2023-04-07T15:19:06;22.70;64.10
19174;DHT22;9719;49.322;8.536;2023-04-07T15:24:08;23.10;60.50
19174;DHT22;9719;49.322;8.536;2023-04-07T15:29:11;22.70;60.00
19174;DHT22;9719;49.322;8.536;2023-04-07T15:34:13;22.00;61.30
19174;DHT22;9719;49.322;8.536;2023-04-07T15:39:15;21.70;61.40
19174;DHT22;9719;49.322;8.536;2023-04-07T15:44:18;21.00;62.70
19174;DHT22;9719;49.322;8.536;2023-04-07T15:49:19;19.90;64.60
19174;DHT22;9719;49.322;8.536;2023-04-07T15:54:21;19.40;67.10
19174;DHT22;9719;49.322;8.536;2023-04-07T15:59:24;19.30;68.30
19174;DHT22;9719;49.322;8.536;2023-04-07T16:04:28;19.40;68.00
19174;DHT22;9719;49.322;8.536;2023-04-07T16:09:30;19.30;69.30
19174;DHT22;9719;49.322;8.536;2023-04-07T16:14:34;19.30;70.90
19174;DHT22;9719;49.322;8.536;2023-04-07T16:19:36;19.40;71.20
19174;DHT22;9719;49.322;8.536;2023-04-07T16:24:37;19.20;71.50
19174;DHT22;9719;49.322;8.536;2023-04-07T16:29:40;18.70;72.30
19174;DHT22;9719;49.322;8.536;2023-04-07T16:34:42;18.30;74.60
19174;DHT22;9719;49.322;8.536;2023-04-07T16:39:44;18.10;76.50
19174;DHT22;9719;49.322;8.536;2023-04-07T16:44:47;18.30;76.90
19174;DHT22;9719;49.322;8.536;2023-04-07T16:49:48;18.20;77.00
19174;DHT22;9719;49.322;8.536;2023-04-07T16:54:50;18.20;76.70
19174;DHT22;9719;49.322;8.536;2023-04-07T16:59:53;18.00;77.50
19174;DHT22;9719;49.322;8.536;2023-04-07T17:04:55;17.80;77.50
19174;DHT22;9719;49.322;8.536;2023-04-07T17:09:57;17.30;77.80
19174;DHT22;9719;49.322;8.536;2023-04-07T17:15:00;16.40;79.60
19174;DHT22;9719;49.322;8.536;2023-04-07T17:20:02;15.60;82.80
19174;DHT22;9719;49.322;8.536;2023-04-07T17:25:04;14.90;86.40
19174;DHT22;9719;49.322;8.536;2023-04-07T17:30:09;14.30;91.20
19174;DHT22;9719;49.322;8.536;2023-04-07T17:35:10;13.90;92.40
19174;DHT22;9719;49.322;8.536;2023-04-07T17:40:12;13.70;93.30
19174;DHT22;9719;49.322;8.536;2023-04-07T17:45:15;13.40;94.60
19174;DHT22;9719;49.322;8.536;2023-04-07T17:50:17;13.20;95.90
19174;DHT22;9719;49.322;8.536;2023-04-07T17:55:19;13.00;96.90
19174;DHT22;9719;49.322;8.536;2023-04-07T18:00:22;12.80;98.10
19174;DHT22;9719;49.322;8.536;2023-04-07T18:05:25;12.80;99.20
19174;DHT22;9719;49.322;8.536;2023-04-07T18:10:27;12.70;99.90
19174;DHT22;9719;49.322;8.536;2023-04-07T18:15:30;12.60;99.90
19174;DHT22;9719;49.322;8.536;2023-04-07T18:20:32;12.60;99.90
19174;DHT22;9719;49.322;8.536;2023-04-07T18:25:34;12.50;99.90
19174;DHT22;9719;49.322;8.536;2023-04-07T18:30:37;12.50;99.90
19174;DHT22;9719;49.322;8.536;2023-04-07T18:35:39;12.50;99.90
19174;DHT22;9719;49.322;8.536;2023-04-07T18:40:41;12.40;99.90
19174;DHT22;9719;49.322;8.536;2023-04-07T18:45:44;12.40;99.90
19174;DHT22;9719;49.322;8.536;2023-04-07T18:50:49;12.40;99.90
19174;DHT22;9719;49.322;8.536;2023-04-07T18:55:52;12.40;99.90
19174;DHT22;9719;49.322;8.536;2023-04-07T19:00:55;12.30;99.90
19174;DHT22;9719;49.322;8.536;2023-04-07T19:05:57;12.30;99.90
19174;DHT22;9719;49.322;8.536;2023-04-07T19:10:59;12.30;99.90
19174;DHT22;9719;49.322;8.536;2023-04-07T19:16:02;12.30;99.90
19174;DHT22;9719;49.322;8.536;2023-04-07T19:21:04;12.30;99.90
19174;DHT22;9719;49.322;8.536;2023-04-07T19:26:08;12.20;99.90
19174;DHT22;9719;49.322;8.536;2023-04-07T19:31:12;12.20;99.90
19174;DHT22;9719;49.322;8.536;2023-04-07T19:36:14;12.10;99.90
19174;DHT22;9719;49.322;8.536;2023-04-07T19:41:15;12.00;99.90
19174;DHT22;9719;49.322;8.536;2023-04-07T19:46:18;11.90;99.90
19174;DHT22;9719;49.322;8.536;2023-04-07T19:51:20;11.90;99.90
19174;DHT22;9719;49.322;8.536;2023-04-07T19:56:22;11.80;99.90
19174;DHT22;9719;49.322;8.536;2023-04-07T20:01:25;11.80;99.90
19174;DHT22;9719;49.322;8.536;2023-04-07T20:06:27;11.80;99.90
19174;DHT22;9719;49.322;8.536;2023-04-07T20:11:29;11.80;99.90
19174;DHT22;9719;49.322;8.536;2023-04-07T20:16:32;11.70;99.90
19174;DHT22;9719;49.322;8.536;2023-04-07T20:21:34;11.70;99.90
19174;DHT22;9719;49.322;8.536;2023-04-07T20:26:36;11.60;99.90
19174;DHT22;9719;49.322;8.536;2023-04-07T20:31:39;11.60;99.90
19174;DHT22;9719;49.322;8.536;2023-04-07T20:36:41;11.60;99.90
19174;DHT22;9719;49.322;8.536;2023-04-07T20:41:43;11.60;99.90
19174;DHT22;9719;49.322;8.536;2023-04-07T20:46:47;11.60;99.90
19174;DHT22;9719;49.322;8.536;2023-04-07T20:51:48;11.60;99.90
19174;DHT22;9719;49.322;8.536;2023-04-07T20:56:51;11.50;99.90
19174;DHT22;9719;49.322;8.536;2023-04-07T21:01:55;11.50;99.90
19174;DHT22;9719;49.322;8.536;2023-04-07T21:06:57;11.50;99.90
19174;DHT22;9719;49.322;8.536;2023-04-07T21:11:59;11.50;99.90
19174;DHT22;9719;49.322;8.536;2023-04-07T21:17:04;11.40;99.90
19174;DHT22;9719;49.322;8.536;2023-04-07T21:22:06;11.40;99.90
19174;DHT22;9719;49.322;8.536;2023-04-07T21:27:08;11.40;99.90
19174;DHT22;9719;49.322;8.536;2023-04-07T21:32:11;11.30;99.90
19174;DHT22;9719;49.322;8.536;2023-04-07T21:37:13;11.30;99.90
19174;DHT22;9719;49.322;8.536;2023-04-07T21:42:15;11.20;99.90
19174;DHT22;9719;49.322;8.536;2023-04-07T21:47:18;11.10;99.90
19174;DHT22;9719;49.322;8.536;2023-04-07T21:52:20;11.00;99.90
19174;DHT22;9719;49.322;8.536;2023-04-07T21:57:21;10.80;99.90
19174;DHT22;9719;49.322;8.536;2023-04-07T22:02:24;10.70;99.90
19174;DHT22;9719;49.322;8.536;2023-04-07T22:07:26;10.50;99.90
19174;DHT22;9719;49.322;8.536;2023-04-07T22:12:28;10.30;99.90
19174;DHT22;9719;49.322;8.536;2023-04-07T22:17:32;10.10;99.90
19174;DHT22;9719;49.322;8.536;2023-04-07T22:22:34;9.80;99.90
19174;DHT22;9719;49.322;8.536;2023-04-07T22:27:35;9.50;99.90
19174;DHT22;9719;49.322;8.536;2023-04-07T22:32:38;9.30;99.90
19174;DHT22;9719;49.322;8.536;2023-04-07T22:37:40;9.10;99.90
19174;DHT22;9719;49.322;8.536;2023-04-07T22:42:42;8.90;99.90
19174;DHT22;9719;49.322;8.536;2023-04-07T22:47:45;8.70;99.90
19174;DHT22;9719;49.322;8.536;2023-04-07T22:52:47;8.60;99.90
19174;DHT22;9719;49.322;8.536;2023-04-07T22:57:48;8.50;99.90
19174;DHT22;9719;49.322;8.536;2023-04-07T23:02:51;8.40;99.90
19174;DHT22;9719;49.322;8.536;2023-04-07T23:07:53;8.40;99.90
19174;DHT22;9719;49.322;8.536;2023-04-07T23:12:55;8.20;99.90
19174;DHT22;9719;49.322;8.536;2023-04-07T23:17:58;8.10;99.90
19174;DHT22;9719;49.322;8.536;2023-04-07T23:23:00;8.10;99.90
19174;DHT22;9719;49.322;8.536;2023-04-07T23:28:01;8.30;99.90
19174;DHT22;9719;49.322;8.536;2023-04-07T23:33:04;8.60;99.90
19174;DHT22;9719;49.322;8.536;2023-04-07T23:38:07;8.90;99.90
19174;DHT22;9719;49.322;8.536;2023-04-07T23:43:10;9.10;99.90
19174;DHT22;9719;49.322;8.536;2023-04-07T23:48:13;9.40;99.90
19174;DHT22;9719;49.322;8.536;2023-04-07T23:53:15;9.50;99.90
19174;DHT22;9719;49.322;8.536;2023-04-07T23:58:17;9.60;99.90
